Página principal
METAR-TAF:

Aeroportos :

Cambridge, Inglaterra

latitude: 52-12N, longitude: 000-11E, altura: 15 m

Observação actual do tempo

O boletim foi feito há 34 minutos, às 16:20 UTC
Vento 12 kt de oes-sudoeste
Temperatura 17°C
Humidade 52%
Pressão 1010 hPa
Visibilidade 10 km ou mais
Poucas nuvensa uma altura de 3500 ft

METAR: EGSC 301620Z 24012KT 9999 FEW035 17/07 Q1010

Hora: 17:54 (16:54 UTC)

Previsão

O boletim foi feito há 2 horas e 53 minutos, às 14:01 UTC
Previsão válida de 30 às 15 UTC a 30 às 19 UTC
Vento 11 kt de oes-sudoeste
Visibilidade 10 km ou mais
Poucas nuvensa uma altura de 4500 ft
Probabilidade 30% :
Temporariamente
de 30 às 15 UTC a 30 às 17 UTC
Visibilidade: 7000 m
aguaceiros de chuva

TAF: EGSC 301401Z 3015/3019 24011KT 9999 FEW045 PROB30 TEMPO 3015/3017 7000 SHRA

METAR-TAF

Observações e previsões do tempo de mais de 4000 aeroportos (mensagens METAR e TAF).

As estações disponíveis são os pontos amarelos e vermelhos sobre o mapa.

Mova o rato sobre o mapa para ver o nome da estação.

Depois clique no ponto para visualizar as observações e previsões meteorológicas.

Para alterar o mapa : clique nos botões verdes com uma cruz preta para aumentar o zoom; no botão verde com uma pitada de zoom; ou nas setas verdes para mapas adjacentes.


METAR-TAF: